createdAt,value
2018-12-17T00:00:50.237Z,7.20
2018-12-17T00:04:56.396Z,7.13
2018-12-17T00:09:02.581Z,6.47
2018-12-17T00:13:07.748Z,5.57
2018-12-17T00:17:11.853Z,5.43
2018-12-17T00:21:15.939Z,5.00
2018-12-17T00:25:20.047Z,5.20
2018-12-17T00:29:24.131Z,5.10
2018-12-17T00:33:28.295Z,4.90
2018-12-17T00:37:32.457Z,5.13
2018-12-17T00:41:36.599Z,5.80
2018-12-17T00:45:40.682Z,5.77
2018-12-17T00:49:44.843Z,5.73
2018-12-17T00:53:49.016Z,9.63
2018-12-17T00:57:53.134Z,13.07
2018-12-17T01:01:58.417Z,12.60
2018-12-17T01:06:02.497Z,11.97
2018-12-17T01:10:07.924Z,12.80
2018-12-17T01:14:11.988Z,11.33
2018-12-17T01:18:16.082Z,10.33
2018-12-17T01:22:20.188Z,10.55
2018-12-17T01:26:24.547Z,9.63
2018-12-17T01:30:28.714Z,10.83
2018-12-17T01:34:32.830Z,10.63
2018-12-17T01:38:36.962Z,10.83
2018-12-17T01:42:41.053Z,9.90
2018-12-17T01:46:45.164Z,9.55
2018-12-17T01:50:49.257Z,9.60
2018-12-17T01:54:53.346Z,8.07
2018-12-17T01:58:57.461Z,9.17
2018-12-17T02:03:01.558Z,8.87
2018-12-17T02:07:05.691Z,9.70
2018-12-17T02:11:09.773Z,9.10
2018-12-17T02:15:13.936Z,10.18
2018-12-17T02:19:18.028Z,9.50
2018-12-17T02:23:22.098Z,8.00
2018-12-17T02:27:26.224Z,7.30
2018-12-17T02:31:30.306Z,7.77
2018-12-17T02:35:34.397Z,7.57
2018-12-17T02:39:38.485Z,8.53
2018-12-17T02:43:42.585Z,7.50
2018-12-17T02:47:46.667Z,7.30
2018-12-17T02:51:50.725Z,6.97
2018-12-17T02:55:54.813Z,7.17
2018-12-17T02:59:58.891Z,7.67
2018-12-17T03:04:02.982Z,7.30
2018-12-17T03:08:07.060Z,7.10
2018-12-17T03:12:11.177Z,7.70
2018-12-17T03:16:15.254Z,6.97
2018-12-17T03:20:19.505Z,7.43
2018-12-17T03:24:24.305Z,6.97
2018-12-17T03:28:28.388Z,8.07
2018-12-17T03:32:32.451Z,7.07
2018-12-17T03:36:36.705Z,7.70
2018-12-17T03:40:40.798Z,7.57
2018-12-17T03:44:44.940Z,7.27
2018-12-17T03:48:49.074Z,7.57
2018-12-17T03:52:53.195Z,8.45
2018-12-17T03:56:57.265Z,6.47
2018-12-17T04:01:01.441Z,7.27
2018-12-17T04:05:06.761Z,7.90
2018-12-17T04:09:10.859Z,7.43
2018-12-17T04:13:14.990Z,8.10
2018-12-17T04:17:19.166Z,8.50
2018-12-17T04:21:24.981Z,8.93
2018-12-17T04:25:29.088Z,8.88
2018-12-17T04:29:33.165Z,8.30
2018-12-17T04:33:37.294Z,7.92
2018-12-17T04:37:41.517Z,7.53
2018-12-17T04:41:45.579Z,7.50
2018-12-17T04:45:49.757Z,7.53
2018-12-17T04:49:53.851Z,7.80
2018-12-17T04:53:57.938Z,8.17
2018-12-17T04:58:02.196Z,7.63
2018-12-17T05:02:06.371Z,7.97
2018-12-17T05:06:10.520Z,8.80
2018-12-17T05:10:14.702Z,7.83
2018-12-17T05:14:18.840Z,7.67
2018-12-17T05:18:22.950Z,7.87
2018-12-17T05:22:27.036Z,7.60
2018-12-17T05:26:31.113Z,7.17
2018-12-17T05:35:02.330Z,6.77
2018-12-17T05:39:06.997Z,6.67
2018-12-17T05:43:11.086Z,6.63
2018-12-17T05:47:15.188Z,7.40
2018-12-17T05:51:19.275Z,6.77
2018-12-17T05:55:23.398Z,8.17
2018-12-17T05:59:28.668Z,7.87
2018-12-17T06:03:32.856Z,8.10
2018-12-17T06:07:36.995Z,7.03
2018-12-17T06:11:41.128Z,6.87
2018-12-17T06:15:45.293Z,7.07
2018-12-17T06:19:49.409Z,7.93
2018-12-17T06:23:53.461Z,8.20
2018-12-17T06:27:57.561Z,7.23
2018-12-17T06:32:01.648Z,7.90
2018-12-17T06:36:05.796Z,7.63
2018-12-17T06:40:10.434Z,7.28
2018-12-17T06:44:14.819Z,7.70
2018-12-17T06:48:18.918Z,8.00
2018-12-17T06:52:23.002Z,6.97
2018-12-17T06:56:27.180Z,6.07
2018-12-17T07:00:31.233Z,6.30
2018-12-17T07:04:35.318Z,5.70
2018-12-17T07:08:39.616Z,5.53
2018-12-17T07:12:43.686Z,6.13
2018-12-17T07:16:48.632Z,5.77
2018-12-17T07:20:52.738Z,5.90
2018-12-17T07:24:56.860Z,6.20
2018-12-17T07:29:00.933Z,6.23
2018-12-17T07:33:05.630Z,6.30
2018-12-17T07:37:11.267Z,5.53
2018-12-17T07:41:15.357Z,6.17
2018-12-17T07:45:19.424Z,6.37
2018-12-17T07:49:23.521Z,6.17
2018-12-17T07:53:27.622Z,6.27
2018-12-17T07:57:31.714Z,5.67
2018-12-17T08:01:35.901Z,6.17
2018-12-17T08:05:40.006Z,4.93
2018-12-17T08:09:44.262Z,5.30
2018-12-17T08:13:48.418Z,5.30
2018-12-17T08:22:37.821Z,5.43
2018-12-17T08:26:42.402Z,5.43
2018-12-17T08:30:47.365Z,5.60
2018-12-17T08:34:51.439Z,5.67
2018-12-17T08:38:55.520Z,5.57
2018-12-17T08:42:59.657Z,5.53
2018-12-17T08:47:03.854Z,4.90
2018-12-17T08:51:08.476Z,5.50
2018-12-17T08:55:12.788Z,5.30
2018-12-17T08:59:16.876Z,5.03
2018-12-17T09:03:20.933Z,4.47
2018-12-17T09:07:25.086Z,4.87
2018-12-17T09:11:29.213Z,4.95
2018-12-17T09:15:33.273Z,6.93
2018-12-17T09:19:37.357Z,4.17
2018-12-17T09:23:41.442Z,4.30
2018-12-17T09:27:45.639Z,4.20
2018-12-17T09:31:49.724Z,3.80
2018-12-17T09:35:53.913Z,3.70
2018-12-17T09:39:57.993Z,4.10
2018-12-17T09:44:03.773Z,4.60
2018-12-17T09:48:08.104Z,4.20
2018-12-17T09:52:12.249Z,4.17
2018-12-17T09:56:16.334Z,3.80
2018-12-17T10:00:25.414Z,3.40
2018-12-17T10:04:26.461Z,3.87
2018-12-17T10:08:30.559Z,3.50
2018-12-17T10:12:34.719Z,3.30
2018-12-17T10:16:38.850Z,3.40
2018-12-17T10:20:42.971Z,3.17
2018-12-17T10:24:47.081Z,3.27
2018-12-17T10:28:51.221Z,3.10
2018-12-17T10:32:55.328Z,2.37
2018-12-17T10:36:59.456Z,2.43
2018-12-17T10:41:03.596Z,2.20
2018-12-17T10:45:08.631Z,2.70
2018-12-17T10:49:12.712Z,2.50
2018-12-17T10:53:16.793Z,2.20
2018-12-17T10:57:21.976Z,2.40
2018-12-17T11:01:32.500Z,2.33
2018-12-17T11:09:58.557Z,1.97
2018-12-17T11:14:02.760Z,2.60
2018-12-17T11:18:06.901Z,2.47
2018-12-17T11:22:11.066Z,2.30
2018-12-17T11:26:15.186Z,2.20
2018-12-17T11:30:19.344Z,2.23
2018-12-17T11:34:23.437Z,1.90
2018-12-17T11:38:27.542Z,2.17
2018-12-17T11:42:31.646Z,2.30
2018-12-17T11:46:35.837Z,1.93
2018-12-17T11:50:39.904Z,2.57
2018-12-17T11:54:44.030Z,2.10
2018-12-17T11:58:48.179Z,2.00
2018-12-17T12:02:59.071Z,2.20
2018-12-17T12:07:00.389Z,1.85
2018-12-17T12:11:04.589Z,1.93
2018-12-17T12:15:08.750Z,2.00
2018-12-17T12:19:12.843Z,1.93
2018-12-17T12:23:17.021Z,1.90
2018-12-17T12:27:21.213Z,1.90
2018-12-17T12:31:25.312Z,2.03
2018-12-17T12:35:29.438Z,1.83
2018-12-17T12:39:33.653Z,1.80
2018-12-17T12:43:37.712Z,1.87
2018-12-17T12:47:41.849Z,1.70
2018-12-17T12:51:45.962Z,1.80
2018-12-17T12:55:50.070Z,1.95
2018-12-17T12:59:54.161Z,1.50
2018-12-17T13:03:58.308Z,1.90
2018-12-17T13:08:02.408Z,1.67
2018-12-17T13:12:06.548Z,1.60
2018-12-17T13:16:10.728Z,1.60
2018-12-17T13:20:14.908Z,1.73
2018-12-17T13:24:19.109Z,2.77
2018-12-17T13:28:23.210Z,1.43
2018-12-17T13:32:27.266Z,1.40
2018-12-17T13:36:31.472Z,1.50
2018-12-17T13:40:35.558Z,1.93
2018-12-17T13:44:39.648Z,1.40
2018-12-17T13:48:44.413Z,1.30
2018-12-17T13:52:48.473Z,1.60
2018-12-17T13:56:52.580Z,1.70
2018-12-17T14:00:56.647Z,1.60
2018-12-17T14:05:01.713Z,1.63
2018-12-17T14:09:06.794Z,2.20
2018-12-17T14:13:12.853Z,1.50
2018-12-17T14:17:22.325Z,1.60
2018-12-17T14:21:31.997Z,1.80
2018-12-17T14:25:36.207Z,1.83
2018-12-17T14:29:40.264Z,2.30
2018-12-17T14:33:44.365Z,2.50
2018-12-17T14:38:06.217Z,1.90
2018-12-17T14:42:10.374Z,1.50
2018-12-17T14:46:14.460Z,1.60
2018-12-17T14:50:18.648Z,1.50
2018-12-17T14:54:22.711Z,1.60
2018-12-17T14:58:26.801Z,1.93
2018-12-17T15:02:30.914Z,1.73
2018-12-17T15:06:35.109Z,1.60
2018-12-17T15:10:39.209Z,1.70
2018-12-17T15:14:43.333Z,1.50
2018-12-17T15:18:47.505Z,1.57
2018-12-17T15:22:51.650Z,1.50
2018-12-17T15:26:55.742Z,1.30
2018-12-17T15:30:59.855Z,1.60
2018-12-17T15:35:05.765Z,1.40
2018-12-17T15:39:09.857Z,1.60
2018-12-17T15:43:13.986Z,2.10
2018-12-17T15:47:18.077Z,1.40
2018-12-17T15:51:22.184Z,1.40
2018-12-17T15:55:26.246Z,1.20
2018-12-17T15:59:30.408Z,1.60
2018-12-17T16:03:34.462Z,1.57
2018-12-17T16:07:48.309Z,1.30
2018-12-17T16:11:52.401Z,1.50
2018-12-17T16:15:56.509Z,1.87
2018-12-17T16:20:00.613Z,1.43
2018-12-17T16:24:04.818Z,1.37
2018-12-17T16:28:08.913Z,1.33
2018-12-17T16:32:13.008Z,1.40
2018-12-17T16:36:17.136Z,1.47
2018-12-17T16:40:26.791Z,1.60
2018-12-17T16:44:48.629Z,1.70
2018-12-17T16:48:52.699Z,1.77
2018-12-17T16:52:56.797Z,1.83
2018-12-17T17:01:48.626Z,2.70
2018-12-17T17:10:48.477Z,1.97
2018-12-17T17:19:50.998Z,1.70
2018-12-17T17:28:48.455Z,1.60
2018-12-17T17:46:48.566Z,1.70
2018-12-17T17:50:52.674Z,1.60
2018-12-17T17:54:56.745Z,1.60
2018-12-17T17:59:00.825Z,2.00
2018-12-17T18:07:48.709Z,1.60
2018-12-17T18:11:52.829Z,1.93
2018-12-17T18:15:57.570Z,1.90
2018-12-17T18:20:02.684Z,1.93
2018-12-17T18:28:49.512Z,2.00
2018-12-17T18:32:53.610Z,2.10
2018-12-17T18:36:57.697Z,2.00
2018-12-17T18:41:01.859Z,2.07
2018-12-17T18:49:48.746Z,1.97
2018-12-17T18:53:53.698Z,2.00
2018-12-17T18:57:59.003Z,2.37
2018-12-17T19:02:03.246Z,2.70
2018-12-17T19:10:53.155Z,2.20
2018-12-17T19:14:57.322Z,2.10
2018-12-17T19:19:02.117Z,2.43
2018-12-17T19:23:06.257Z,2.00
2018-12-17T19:31:49.147Z,2.13
2018-12-17T19:35:54.054Z,2.10
2018-12-17T19:39:58.240Z,2.40
2018-12-17T19:44:03.414Z,2.63
2018-12-17T19:48:09.195Z,2.30
2018-12-17T19:52:18.672Z,2.50
2018-12-17T19:56:22.855Z,2.47
2018-12-17T20:00:48.509Z,2.60
2018-12-17T20:04:52.670Z,2.60
2018-12-17T20:08:58.714Z,2.53
2018-12-17T20:13:02.813Z,2.43
2018-12-17T20:21:21.702Z,2.80
2018-12-17T20:25:25.858Z,3.00
2018-12-17T20:29:29.941Z,2.60
2018-12-17T20:33:34.132Z,2.53
2018-12-17T20:37:38.302Z,2.80
2018-12-17T20:41:42.404Z,3.17
2018-12-17T20:45:46.494Z,3.00
2018-12-17T20:49:50.569Z,3.00
2018-12-17T20:53:54.679Z,2.80
2018-12-17T20:57:58.945Z,3.17
2018-12-17T21:02:03.348Z,2.47
2018-12-17T21:06:07.434Z,3.20
2018-12-17T21:10:11.785Z,3.47
2018-12-17T21:14:15.830Z,4.00
2018-12-17T21:18:19.914Z,6.00
2018-12-17T21:22:24.002Z,3.87
2018-12-17T21:26:28.154Z,4.13
2018-12-17T21:30:32.247Z,3.60
2018-12-17T21:34:37.422Z,3.60
2018-12-17T21:38:41.591Z,3.37
2018-12-17T21:42:45.678Z,3.70
2018-12-17T21:46:50.376Z,3.60
2018-12-17T21:50:54.463Z,3.30
2018-12-17T21:54:58.542Z,3.20
2018-12-17T21:59:02.786Z,2.93
2018-12-17T22:03:13.085Z,3.27
2018-12-17T22:07:13.028Z,2.60
2018-12-17T22:11:17.129Z,2.70
2018-12-17T22:15:21.291Z,2.80
2018-12-17T22:19:25.404Z,2.70
2018-12-17T22:23:29.464Z,2.70
2018-12-17T22:27:33.554Z,2.57
2018-12-17T22:31:37.718Z,2.70
2018-12-17T22:35:41.803Z,2.50
2018-12-17T22:39:45.879Z,2.40
2018-12-17T22:43:49.961Z,2.80
2018-12-17T22:47:54.048Z,2.60
2018-12-17T22:51:58.160Z,2.58
2018-12-17T22:56:02.284Z,2.30
2018-12-17T23:00:08.897Z,2.20
2018-12-17T23:04:15.934Z,2.63
2018-12-17T23:08:20.005Z,2.72
2018-12-17T23:12:42.174Z,3.07
2018-12-17T23:17:04.192Z,2.80
2018-12-17T23:21:08.499Z,2.93
2018-12-17T23:25:14.633Z,2.70
2018-12-17T23:29:18.738Z,2.93
2018-12-17T23:33:22.815Z,2.77
2018-12-17T23:37:26.957Z,3.07
2018-12-17T23:41:31.037Z,2.63
2018-12-17T23:45:35.260Z,2.83
2018-12-17T23:49:39.473Z,2.20
2018-12-17T23:53:43.560Z,2.27
2018-12-17T23:57:47.629Z,1.90
